Time;durP1;ratioP1;P1;durP2;ratioP2;P2;SDS_P1;SDS_P2;PMS_P1;PMS_P2;Temp;Humidity;BMP_temperature;BMP_pressure;BME280_temperature;BME280_humidity;BME280_pressure;Samples;Min_cycle;Max_cycle;Signal;HPM_P1;HPM_P2
2022/08/06 00:02:05;;;;;;;60.63;2.93;;;;;;;;;;5091298;28;21018;-67
2022/08/06 00:04:34;;;;;;;59.37;3.00;;;;;;;;;;5091815;28;20453;-67
2022/08/06 00:07:01;;;;;;;58.47;2.70;;;;;;;;;;5091744;28;20450;-67
2022/08/06 00:09:30;;;;;;;61.20;3.43;;;;;;;;;;5090524;28;20580;-67
2022/08/06 00:11:57;;;;;;;59.30;3.27;;;;;;;;;;5091731;28;20561;-67
2022/08/06 00:14:24;;;;;;;59.00;3.23;;;;;;;;;;5091474;28;20446;-67
2022/08/06 00:16:51;;;;;;;59.70;3.57;;;;;;;;;;5091456;28;20457;-67
2022/08/06 00:19:18;;;;;;;59.23;3.00;;;;;;;;;;5090799;28;20446;-67
2022/08/06 00:21:47;;;;;;;58.93;3.03;;;;;;;;;;5091158;28;20472;-67
2022/08/06 00:24:15;;;;;;;59.83;3.30;;;;;;;;;;5091502;28;20455;-67
2022/08/06 00:26:42;;;;;;;58.77;2.97;;;;;;;;;;5091312;28;20462;-67
2022/08/06 00:29:09;;;;;;;58.73;2.93;;;;;;;;;;5090899;28;20482;-67
2022/08/06 00:31:36;;;;;;;58.80;3.03;;;;;;;;;;5091224;28;20470;-67
2022/08/06 00:34:03;;;;;;;58.87;3.27;;;;;;;;;;5091532;28;20930;-67
2022/08/06 00:36:31;;;;;;;58.50;2.90;;;;;;;;;;5091382;28;20442;-67
2022/08/06 00:39:01;;;;;;;59.07;2.57;;;;;;;;;;5094439;28;20450;-67
2022/08/06 00:41:28;;;;;;;58.60;2.67;;;;;;;;;;5111624;28;20548;-67
2022/08/06 00:43:56;;;;;;;59.57;3.20;;;;;;;;;;5111433;28;20450;-67
2022/08/06 00:46:23;;;;;;;59.27;3.80;;;;;;;;;;5111736;28;20467;-66
2022/08/06 00:48:50;;;;;;;58.70;2.80;;;;;;;;;;5111274;28;20481;-67
2022/08/06 00:51:17;;;;;;;60.87;3.27;;;;;;;;;;5111554;28;20466;-67
2022/08/06 00:53:45;;;;;;;59.07;2.87;;;;;;;;;;5111312;28;20452;-67
2022/08/06 00:56:13;;;;;;;59.10;3.00;;;;;;;;;;5111500;28;20456;-67
2022/08/06 00:58:40;;;;;;;58.77;3.20;;;;;;;;;;5114373;28;20448;-67
2022/08/06 01:01:07;;;;;;;59.07;3.30;;;;;;;;;;5115216;28;20467;-67
2022/08/06 01:03:35;;;;;;;58.80;2.67;;;;;;;;;;5115623;28;20449;-67
2022/08/06 01:06:02;;;;;;;58.50;2.97;;;;;;;;;;5115978;28;20441;-67
2022/08/06 01:08:29;;;;;;;58.90;2.80;;;;;;;;;;5115207;28;20477;-67
2022/08/06 01:10:56;;;;;;;58.47;2.60;;;;;;;;;;5104492;28;20470;-67
2022/08/06 01:13:24;;;;;;;58.40;2.87;;;;;;;;;;5095064;28;20817;-67
2022/08/06 01:15:53;;;;;;;57.90;2.90;;;;;;;;;;5095122;28;20825;-67
2022/08/06 01:18:25;;;;;;;59.20;2.90;;;;;;;;;;5094968;28;20442;-67
2022/08/06 01:20:56;;;;;;;59.07;3.13;;;;;;;;;;5094082;28;20467;-67
2022/08/06 01:23:34;;;;;;;59.77;3.00;;;;;;;;;;5094434;28;20456;-67
2022/08/06 01:26:12;;;;;;;59.10;2.83;;;;;;;;;;5094482;28;20507;-67
2022/08/06 01:28:43;;;;;;;58.73;2.83;;;;;;;;;;5093920;28;20565;-67
2022/08/06 01:31:12;;;;;;;58.33;2.60;;;;;;;;;;5094778;28;20477;-67
2022/08/06 01:33:41;;;;;;;58.40;2.80;;;;;;;;;;5094343;28;20537;-67
2022/08/06 01:36:11;;;;;;;58.40;2.90;;;;;;;;;;5094184;28;20454;-67
2022/08/06 01:38:40;;;;;;;67.03;3.47;;;;;;;;;;5094177;28;20450;-67
2022/08/06 01:41:10;;;;;;;58.37;2.67;;;;;;;;;;5094298;28;20475;-67
2022/08/06 01:43:38;;;;;;;58.60;2.67;;;;;;;;;;5092762;28;20557;-67
2022/08/06 01:46:08;;;;;;;58.67;2.70;;;;;;;;;;5094272;28;20446;-67
2022/08/06 01:48:37;;;;;;;58.27;3.10;;;;;;;;;;5104705;28;20450;-67
2022/08/06 01:51:07;;;;;;;58.40;3.13;;;;;;;;;;5113264;28;20470;-67
2022/08/06 01:53:36;;;;;;;58.43;2.73;;;;;;;;;;5113227;28;20501;-67
2022/08/06 01:56:04;;;;;;;58.80;3.00;;;;;;;;;;5113046;28;20456;-67
2022/08/06 01:58:33;;;;;;;58.80;2.80;;;;;;;;;;5113181;28;20814;-67
2022/08/06 02:01:01;;;;;;;58.90;2.77;;;;;;;;;;5112746;28;20475;-67
2022/08/06 02:03:31;;;;;;;59.20;3.10;;;;;;;;;;5113094;28;20891;-67
2022/08/06 02:05:59;;;;;;;58.90;3.00;;;;;;;;;;5112920;28;20444;-67
2022/08/06 02:08:28;;;;;;;58.73;3.30;;;;;;;;;;5112651;28;20532;-67
2022/08/06 02:10:56;;;;;;;63.27;4.17;;;;;;;;;;5113092;28;20566;-67
2022/08/06 02:13:24;;;;;;;58.27;2.50;;;;;;;;;;5113534;28;20452;-67
2022/08/06 02:15:52;;;;;;;58.87;3.03;;;;;;;;;;5092324;28;20446;-67
2022/08/06 02:18:21;;;;;;;60.00;2.93;;;;;;;;;;5092568;28;20446;-67
2022/08/06 02:20:51;;;;;;;59.27;3.23;;;;;;;;;;5091642;28;20477;-67
2022/08/06 02:23:20;;;;;;;58.80;3.20;;;;;;;;;;5092966;28;20451;-67
2022/08/06 02:25:49;;;;;;;58.73;2.93;;;;;;;;;;5092572;28;20447;-67
2022/08/06 02:28:17;;;;;;;59.07;3.17;;;;;;;;;;5092355;28;20460;-67
2022/08/06 02:30:45;;;;;;;58.87;2.87;;;;;;;;;;5092264;28;20484;-66
2022/08/06 02:33:13;;;;;;;59.00;3.17;;;;;;;;;;5092894;28;20482;-66
2022/08/06 02:35:44;;;;;;;58.37;2.90;;;;;;;;;;5093013;28;20448;-66
2022/08/06 02:38:15;;;;;;;58.93;3.03;;;;;;;;;;5092990;28;20443;-66
2022/08/06 02:40:44;;;;;;;58.50;2.80;;;;;;;;;;5092863;28;20462;-66
2022/08/06 02:43:13;;;;;;;60.63;3.27;;;;;;;;;;5092947;28;20453;-66
2022/08/06 02:45:43;;;;;;;58.57;3.00;;;;;;;;;;5092877;28;20449;-66
2022/08/06 02:48:14;;;;;;;59.00;3.23;;;;;;;;;;5092951;28;20473;-66
2022/08/06 02:50:43;;;;;;;58.97;2.93;;;;;;;;;;5053927;28;1117799;-66
2022/08/06 02:53:12;;;;;;;58.77;3.00;;;;;;;;;;5093994;28;20204;-66
2022/08/06 02:55:43;;;;;;;58.47;2.80;;;;;;;;;;5093564;28;20537;-66
2022/08/06 02:58:13;;;;;;;58.87;3.10;;;;;;;;;;5093548;28;20453;-66
2022/08/06 03:00:41;;;;;;;58.47;3.00;;;;;;;;;;5093466;28;20463;-66
2022/08/06 03:03:09;;;;;;;58.97;3.50;;;;;;;;;;5093590;28;20461;-66
2022/08/06 03:05:37;;;;;;;58.60;2.80;;;;;;;;;;5093702;28;20816;-66
2022/08/06 03:08:06;;;;;;;59.70;3.17;;;;;;;;;;5093984;28;20450;-66
2022/08/06 03:10:34;;;;;;;58.07;3.00;;;;;;;;;;5092976;28;20486;-66
2022/08/06 03:13:04;;;;;;;59.50;3.40;;;;;;;;;;5093416;28;20524;-66
2022/08/06 03:15:32;;;;;;;59.20;3.30;;;;;;;;;;5093274;28;20927;-66
2022/08/06 03:18:00;;;;;;;58.67;3.10;;;;;;;;;;5093207;28;20797;-66
2022/08/06 03:20:28;;;;;;;58.63;3.10;;;;;;;;;;5092213;28;20532;-66
2022/08/06 03:22:58;;;;;;;59.10;3.43;;;;;;;;;;5093165;28;20446;-66
2022/08/06 03:25:26;;;;;;;59.90;3.33;;;;;;;;;;5093675;28;20450;-66
2022/08/06 03:27:54;;;;;;;58.93;3.10;;;;;;;;;;5093255;28;20957;-66
2022/08/06 03:30:22;;;;;;;58.73;2.97;;;;;;;;;;5092580;28;20489;-66
2022/08/06 03:32:51;;;;;;;58.70;3.00;;;;;;;;;;5093242;28;20453;-66
2022/08/06 03:35:19;;;;;;;58.90;3.40;;;;;;;;;;5092965;28;20457;-66
2022/08/06 03:37:47;;;;;;;58.57;3.23;;;;;;;;;;5092864;28;20516;-66
2022/08/06 03:40:16;;;;;;;59.27;3.60;;;;;;;;;;5092661;28;20454;-66
2022/08/06 03:42:43;;;;;;;60.50;3.40;;;;;;;;;;5092382;28;20465;-66
2022/08/06 03:45:10;;;;;;;58.37;2.57;;;;;;;;;;5091333;28;20447;-66
2022/08/06 03:47:41;;;;;;;58.37;3.37;;;;;;;;;;5092229;28;20442;-66
2022/08/06 03:50:11;;;;;;;58.50;3.10;;;;;;;;;;5091520;28;20483;-66
2022/08/06 03:52:39;;;;;;;59.00;3.03;;;;;;;;;;5092170;28;20829;-66
2022/08/06 03:55:08;;;;;;;58.43;2.83;;;;;;;;;;5092015;28;20442;-66
2022/08/06 03:57:36;;;;;;;58.97;3.20;;;;;;;;;;5092634;28;20443;-66
2022/08/06 04:00:05;;;;;;;58.83;3.10;;;;;;;;;;5092176;28;20439;-66
2022/08/06 04:02:34;;;;;;;58.87;3.07;;;;;;;;;;5092540;28;20448;-66
2022/08/06 04:05:03;;;;;;;58.97;2.90;;;;;;;;;;5092477;28;20453;-66
2022/08/06 04:07:31;;;;;;;60.10;3.20;;;;;;;;;;5092438;28;20945;-66
2022/08/06 04:09:58;;;;;;;58.27;2.90;;;;;;;;;;5091980;28;20564;-66
2022/08/06 04:12:26;;;;;;;58.87;3.20;;;;;;;;;;5092473;28;20450;-66
2022/08/06 04:14:53;;;;;;;58.70;2.93;;;;;;;;;;5092346;28;20452;-66
2022/08/06 04:17:21;;;;;;;58.47;3.20;;;;;;;;;;5092202;28;20453;-66
2022/08/06 04:19:49;;;;;;;58.80;2.90;;;;;;;;;;5092032;28;20442;-66
2022/08/06 04:22:18;;;;;;;58.77;3.13;;;;;;;;;;5092389;28;20989;-66
2022/08/06 04:24:45;;;;;;;59.77;3.53;;;;;;;;;;5092252;28;20453;-67
2022/08/06 04:27:14;;;;;;;59.47;2.97;;;;;;;;;;5092129;28;20958;-66
2022/08/06 04:29:42;;;;;;;59.87;3.40;;;;;;;;;;5091621;28;20470;-66
2022/08/06 04:32:09;;;;;;;59.27;2.97;;;;;;;;;;5092131;28;20466;-66
2022/08/06 04:34:38;;;;;;;59.00;3.10;;;;;;;;;;5092278;28;20447;-66
2022/08/06 04:37:06;;;;;;;59.97;3.30;;;;;;;;;;5092114;28;20457;-66
2022/08/06 04:39:35;;;;;;;58.97;3.53;;;;;;;;;;5091676;28;20515;-66
2022/08/06 04:42:02;;;;;;;58.97;3.30;;;;;;;;;;5091937;28;20474;-67
2022/08/06 04:44:30;;;;;;;58.77;3.00;;;;;;;;;;5092028;28;20824;-66
2022/08/06 04:46:58;;;;;;;58.50;2.90;;;;;;;;;;5091860;28;20449;-66
2022/08/06 04:49:25;;;;;;;59.53;3.20;;;;;;;;;;5091573;28;20462;-66
2022/08/06 04:51:52;;;;;;;62.23;3.30;;;;;;;;;;5092362;28;20476;-66
2022/08/06 04:54:19;;;;;;;58.70;2.70;;;;;;;;;;5091872;28;20545;-66
2022/08/06 04:56:48;;;;;;;58.27;2.70;;;;;;;;;;5091755;28;20450;-66
2022/08/06 04:59:15;;;;;;;58.60;2.83;;;;;;;;;;5091641;28;20442;-66
2022/08/06 05:01:42;;;;;;;58.97;3.03;;;;;;;;;;5091912;28;20473;-66
2022/08/06 05:04:09;;;;;;;59.93;3.80;;;;;;;;;;5091861;28;20449;-66
2022/08/06 05:06:41;;;;;;;59.30;2.93;;;;;;;;;;5091804;28;20454;-66
2022/08/06 05:09:11;;;;;;;58.80;3.00;;;;;;;;;;5091550;28;20450;-66
2022/08/06 05:11:40;;;;;;;59.17;3.13;;;;;;;;;;5091575;28;20490;-66
2022/08/06 05:14:10;;;;;;;59.10;3.30;;;;;;;;;;5091781;28;20452;-67
2022/08/06 05:16:40;;;;;;;58.93;3.20;;;;;;;;;;5091769;28;20491;-66
2022/08/06 05:19:11;;;;;;;59.10;3.43;;;;;;;;;;5091492;28;20453;-66
2022/08/06 05:21:39;;;;;;;58.60;3.20;;;;;;;;;;5091511;28;20674;-66
2022/08/06 05:24:07;;;;;;;58.40;2.83;;;;;;;;;;5091784;28;20524;-66
2022/08/06 05:26:35;;;;;;;65.00;3.30;;;;;;;;;;5091687;28;20457;-67
2022/08/06 05:29:02;;;;;;;58.50;3.10;;;;;;;;;;5091207;28;20961;-67
2022/08/06 05:31:31;;;;;;;59.10;3.07;;;;;;;;;;5091464;28;20486;-66
2022/08/06 05:33:58;;;;;;;58.63;3.17;;;;;;;;;;5091590;28;20804;-67
2022/08/06 05:36:25;;;;;;;58.70;3.20;;;;;;;;;;5091432;28;20442;-66
2022/08/06 05:38:52;;;;;;;59.50;2.97;;;;;;;;;;5091337;28;21011;-66
2022/08/06 05:41:20;;;;;;;58.57;2.97;;;;;;;;;;5091478;28;20462;-66
2022/08/06 05:43:47;;;;;;;58.67;3.27;;;;;;;;;;5093383;28;20458;-66
2022/08/06 05:46:15;;;;;;;58.67;3.10;;;;;;;;;;5095247;28;20446;-66
2022/08/06 05:48:45;;;;;;;60.30;3.40;;;;;;;;;;5094752;28;20452;-67
2022/08/06 05:51:14;;;;;;;58.80;3.00;;;;;;;;;;5094896;28;20482;-67
2022/08/06 05:53:44;;;;;;;59.70;3.10;;;;;;;;;;5095192;28;20797;-66
2022/08/06 05:56:12;;;;;;;58.27;2.90;;;;;;;;;;5095076;28;20473;-66
2022/08/06 05:58:41;;;;;;;58.90;3.00;;;;;;;;;;5094737;28;20841;-67
2022/08/06 06:01:09;;;;;;;60.80;2.77;;;;;;;;;;5094811;28;20484;-66
2022/08/06 06:03:38;;;;;;;60.07;3.10;;;;;;;;;;5094828;28;20472;-67
2022/08/06 06:06:07;;;;;;;58.70;3.17;;;;;;;;;;5094685;28;20450;-66
2022/08/06 06:08:34;;;;;;;59.40;3.20;;;;;;;;;;5094541;28;20528;-67
2022/08/06 06:11:01;;;;;;;58.60;3.13;;;;;;;;;;5094938;28;20486;-67
2022/08/06 06:13:28;;;;;;;58.40;3.20;;;;;;;;;;5094655;28;20826;-66
2022/08/06 06:15:59;;;;;;;59.03;3.03;;;;;;;;;;5094505;28;20443;-66
2022/08/06 06:18:31;;;;;;;58.57;2.80;;;;;;;;;;5094911;28;20449;-67
2022/08/06 06:21:00;;;;;;;58.57;3.10;;;;;;;;;;5094506;28;20473;-67
2022/08/06 06:23:32;;;;;;;58.77;3.40;;;;;;;;;;5094540;28;20450;-67
2022/08/06 06:26:03;;;;;;;58.50;3.10;;;;;;;;;;5094439;28;20453;-66
2022/08/06 06:28:31;;;;;;;58.40;3.00;;;;;;;;;;5094067;28;20457;-67
2022/08/06 06:31:01;;;;;;;59.57;3.40;;;;;;;;;;5094294;28;20486;-66
2022/08/06 06:33:31;;;;;;;58.17;2.80;;;;;;;;;;5094821;28;20504;-66
2022/08/06 06:36:00;;;;;;;58.70;2.90;;;;;;;;;;5094328;28;20457;-66
2022/08/06 06:38:33;;;;;;;59.03;3.50;;;;;;;;;;5093980;28;21092;-67
2022/08/06 06:41:04;;;;;;;58.50;3.13;;;;;;;;;;5093891;28;20978;-66
2022/08/06 06:43:35;;;;;;;58.30;2.90;;;;;;;;;;5094202;28;20451;-67
2022/08/06 06:46:04;;;;;;;61.07;3.70;;;;;;;;;;5094164;28;20465;-67
2022/08/06 06:48:34;;;;;;;58.30;2.57;;;;;;;;;;5093916;28;20442;-67
2022/08/06 06:51:03;;;;;;;59.50;3.03;;;;;;;;;;5093728;28;20882;-66
2022/08/06 06:53:34;;;;;;;60.47;3.07;;;;;;;;;;5093790;28;20499;-66
2022/08/06 06:56:01;;;;;;;58.47;2.87;;;;;;;;;;5092939;28;20451;-66
2022/08/06 06:58:31;;;;;;;60.60;3.30;;;;;;;;;;5093598;28;20443;-67
2022/08/06 07:00:58;;;;;;;58.80;3.30;;;;;;;;;;5093706;28;20839;-67
2022/08/06 07:03:27;;;;;;;59.20;3.10;;;;;;;;;;5093663;28;20481;-66
2022/08/06 07:05:57;;;;;;;59.40;3.07;;;;;;;;;;5093460;28;20489;-66
2022/08/06 07:08:25;;;;;;;58.60;3.10;;;;;;;;;;5093900;28;20451;-66
2022/08/06 07:10:55;;;;;;;58.77;3.13;;;;;;;;;;5093319;28;20496;-66
2022/08/06 07:13:22;;;;;;;58.77;3.03;;;;;;;;;;5093422;28;21035;-67
2022/08/06 07:15:50;;;;;;;58.77;3.27;;;;;;;;;;5093474;28;20450;-66
2022/08/06 07:18:17;;;;;;;58.80;3.50;;;;;;;;;;5093246;28;20446;-67
2022/08/06 07:20:45;;;;;;;58.13;3.30;;;;;;;;;;5093348;28;20481;-66
2022/08/06 07:23:12;;;;;;;58.70;3.20;;;;;;;;;;5093457;28;20637;-67
2022/08/06 07:25:41;;;;;;;58.67;2.93;;;;;;;;;;5093319;28;20822;-66
2022/08/06 07:28:12;;;;;;;58.40;2.90;;;;;;;;;;5093122;28;20489;-66
2022/08/06 07:30:41;;;;;;;58.77;3.93;;;;;;;;;;5092776;28;20981;-67
2022/08/06 07:33:09;;;;;;;59.20;3.00;;;;;;;;;;5093072;28;20449;-66
2022/08/06 07:35:37;;;;;;;58.40;3.20;;;;;;;;;;5093292;28;20770;-67
2022/08/06 07:38:05;;;;;;;59.47;3.40;;;;;;;;;;5093225;28;20453;-66
2022/08/06 07:40:33;;;;;;;59.20;3.80;;;;;;;;;;5092641;28;20462;-67
2022/08/06 07:43:02;;;;;;;58.63;3.37;;;;;;;;;;5092891;28;20454;-67
2022/08/06 07:45:34;;;;;;;58.53;3.63;;;;;;;;;;5092783;28;20453;-67
2022/08/06 07:48:02;;;;;;;59.10;3.50;;;;;;;;;;5093058;28;20454;-67
2022/08/06 07:50:29;;;;;;;58.70;3.00;;;;;;;;;;5092247;28;20475;-66
2022/08/06 07:52:57;;;;;;;59.80;3.40;;;;;;;;;;5092827;28;20444;-67
2022/08/06 07:55:26;;;;;;;58.60;3.07;;;;;;;;;;5092606;28;20454;-67
2022/08/06 07:57:54;;;;;;;58.83;3.13;;;;;;;;;;5092612;28;20450;-66
2022/08/06 08:00:22;;;;;;;58.17;3.00;;;;;;;;;;5092463;28;20515;-66
2022/08/06 08:08:21;;;;;;;59.83;3.27;;;;;;;;;;5092373;28;21032;-67
2022/08/06 08:10:48;;;;;;;59.43;3.57;;;;;;;;;;5092053;28;20495;-67
2022/08/06 08:13:18;;;;;;;58.37;3.10;;;;;;;;;;5092508;28;20447;-67
2022/08/06 08:15:46;;;;;;;58.70;3.40;;;;;;;;;;5092665;28;20467;-67
2022/08/06 08:18:14;;;;;;;59.47;3.10;;;;;;;;;;5092368;28;20945;-67
2022/08/06 08:20:43;;;;;;;59.20;3.63;;;;;;;;;;5091993;28;20491;-67
2022/08/06 08:23:12;;;;;;;58.40;2.80;;;;;;;;;;5092139;28;20449;-67
2022/08/06 08:25:40;;;;;;;58.70;3.30;;;;;;;;;;5092491;28;20779;-67
2022/08/06 08:28:07;;;;;;;58.57;3.07;;;;;;;;;;5092422;28;20448;-67
2022/08/06 08:30:34;;;;;;;59.80;3.47;;;;;;;;;;5091843;28;20465;-66
2022/08/06 08:33:02;;;;;;;58.60;3.00;;;;;;;;;;5092078;28;20449;-67
2022/08/06 08:35:30;;;;;;;58.40;3.07;;;;;;;;;;5092046;28;20452;-67
2022/08/06 08:37:57;;;;;;;58.17;2.77;;;;;;;;;;5092171;28;20449;-67
2022/08/06 08:40:26;;;;;;;58.00;3.13;;;;;;;;;;5091850;28;20462;-67
2022/08/06 08:42:55;;;;;;;58.37;2.90;;;;;;;;;;5092071;28;20445;-67
2022/08/06 08:45:22;;;;;;;58.83;3.13;;;;;;;;;;5091973;28;20462;-67
2022/08/06 08:47:51;;;;;;;60.33;3.17;;;;;;;;;;5091990;28;20455;-67
2022/08/06 08:50:19;;;;;;;60.57;3.20;;;;;;;;;;5091801;28;20937;-67
2022/08/06 08:52:48;;;;;;;58.37;3.30;;;;;;;;;;5091726;28;20484;-67
2022/08/06 08:55:17;;;;;;;58.47;3.20;;;;;;;;;;5092001;28;20448;-67
2022/08/06 08:57:44;;;;;;;58.20;3.03;;;;;;;;;;5091931;28;20445;-66
2022/08/06 09:00:12;;;;;;;60.30;3.60;;;;;;;;;;5091380;28;20448;-67
2022/08/06 09:02:41;;;;;;;58.97;3.17;;;;;;;;;;5091676;28;20449;-66
2022/08/06 09:05:08;;;;;;;58.10;3.00;;;;;;;;;;5091928;28;20462;-67
2022/08/06 09:07:35;;;;;;;58.30;2.90;;;;;;;;;;5091636;28;20445;-67
2022/08/06 09:10:04;;;;;;;58.67;3.00;;;;;;;;;;5091409;28;20545;-66
2022/08/06 09:12:32;;;;;;;59.40;3.30;;;;;;;;;;5091637;28;20489;-67
2022/08/06 09:14:59;;;;;;;59.43;3.20;;;;;;;;;;5091537;28;20950;-67
2022/08/06 09:17:27;;;;;;;58.80;3.10;;;;;;;;;;5091578;28;20446;-66
2022/08/06 09:19:54;;;;;;;58.90;3.00;;;;;;;;;;5095371;28;20454;-67
2022/08/06 09:22:21;;;;;;;58.70;2.90;;;;;;;;;;5095568;28;20476;-67
2022/08/06 09:24:49;;;;;;;58.70;3.03;;;;;;;;;;5095629;28;20450;-67
2022/08/06 09:27:18;;;;;;;58.77;3.13;;;;;;;;;;5095548;28;20812;-67
2022/08/06 09:29:50;;;;;;;59.00;2.90;;;;;;;;;;5095074;28;20449;-66
2022/08/06 09:32:36;;;;;;;58.13;2.77;;;;;;;;;;5095485;28;20486;-67
2022/08/06 09:35:04;;;;;;;58.97;2.57;;;;;;;;;;5095471;28;20457;-67
2022/08/06 09:37:31;;;;;;;59.43;4.20;;;;;;;;;;5095270;28;20472;-67
2022/08/06 09:39:58;;;;;;;58.47;3.30;;;;;;;;;;5094844;28;20446;-67
2022/08/06 09:42:40;;;;;;;58.20;2.70;;;;;;;;;;5095059;28;20982;-67
2022/08/06 09:45:07;;;;;;;57.90;2.70;;;;;;;;;;5095305;28;20446;-67
2022/08/06 09:47:34;;;;;;;58.10;2.60;;;;;;;;;;5095258;28;20442;-67
2022/08/06 09:50:01;;;;;;;58.87;3.27;;;;;;;;;;5094539;28;20464;-67
2022/08/06 09:52:28;;;;;;;58.30;2.60;;;;;;;;;;5094878;28;20543;-67
2022/08/06 09:54:56;;;;;;;59.93;3.40;;;;;;;;;;5095229;28;20884;-67
2022/08/06 09:57:24;;;;;;;59.87;2.87;;;;;;;;;;5095077;28;20443;-67
2022/08/06 09:59:52;;;;;;;58.33;3.00;;;;;;;;;;5094791;28;20442;-67
2022/08/06 10:02:21;;;;;;;59.67;2.90;;;;;;;;;;5094903;28;20466;-67
2022/08/06 10:04:49;;;;;;;58.80;2.80;;;;;;;;;;5094714;28;20530;-67
2022/08/06 10:07:16;;;;;;;58.33;2.70;;;;;;;;;;5094582;28;20452;-67
2022/08/06 10:10:01;;;;;;;58.50;2.73;;;;;;;;;;5094428;28;20969;-67
2022/08/06 10:12:29;;;;;;;58.70;2.97;;;;;;;;;;5094848;28;20492;-67
2022/08/06 10:14:57;;;;;;;58.47;3.07;;;;;;;;;;5094573;28;20450;-67
2022/08/06 10:17:25;;;;;;;58.33;2.83;;;;;;;;;;5095066;28;20447;-67
2022/08/06 10:20:06;;;;;;;58.47;2.70;;;;;;;;;;5094003;28;20544;-67
2022/08/06 10:22:33;;;;;;;58.30;2.67;;;;;;;;;;5094484;28;20862;-67
2022/08/06 10:25:02;;;;;;;58.13;2.83;;;;;;;;;;5094489;28;20449;-67
2022/08/06 10:27:30;;;;;;;58.17;2.73;;;;;;;;;;5094362;28;20442;-67
2022/08/06 10:30:02;;;;;;;58.37;2.60;;;;;;;;;;5093617;28;20819;-67
2022/08/06 10:32:31;;;;;;;58.20;2.60;;;;;;;;;;5094142;28;20493;-67
2022/08/06 10:34:59;;;;;;;58.67;2.67;;;;;;;;;;5094396;28;20446;-67
2022/08/06 10:37:26;;;;;;;60.27;2.80;;;;;;;;;;5094257;28;20457;-67
2022/08/06 10:39:57;;;;;;;58.10;2.80;;;;;;;;;;5093831;28;20447;-67
2022/08/06 10:42:24;;;;;;;57.87;2.13;;;;;;;;;;5094001;28;20466;-67
2022/08/06 10:44:52;;;;;;;58.50;2.47;;;;;;;;;;5094584;28;20453;-68
2022/08/06 10:47:20;;;;;;;58.40;2.87;;;;;;;;;;5094180;28;20453;-68
2022/08/06 10:49:48;;;;;;;57.70;2.30;;;;;;;;;;5093691;28;20470;-67
2022/08/06 10:52:15;;;;;;;58.00;2.80;;;;;;;;;;5093672;28;21012;-67
2022/08/06 10:54:42;;;;;;;57.37;2.30;;;;;;;;;;5093903;28;20446;-67
2022/08/06 10:57:12;;;;;;;57.17;2.30;;;;;;;;;;5093624;28;20938;-68
2022/08/06 10:59:39;;;;;;;58.47;2.70;;;;;;;;;;5093381;28;20876;-68
2022/08/06 11:02:10;;;;;;;57.90;2.37;;;;;;;;;;5093692;28;20459;-67
2022/08/06 11:04:48;;;;;;;57.97;2.30;;;;;;;;;;5093492;28;21010;-67
2022/08/06 11:07:29;;;;;;;57.70;2.40;;;;;;;;;;5093730;28;20458;-67
2022/08/06 11:10:04;;;;;;;57.67;2.27;;;;;;;;;;5093222;28;20814;-67
2022/08/06 11:12:48;;;;;;;57.90;2.30;;;;;;;;;;5093555;28;20906;-67
2022/08/06 11:15:15;;;;;;;58.40;2.67;;;;;;;;;;5093922;28;20930;-67
2022/08/06 11:17:43;;;;;;;58.17;2.40;;;;;;;;;;5093423;28;20439;-67
2022/08/06 11:20:31;;;;;;;58.00;2.80;;;;;;;;;;5092846;28;20453;-68
2022/08/06 11:22:59;;;;;;;58.17;2.50;;;;;;;;;;5093136;28;20821;-68
2022/08/06 11:25:38;;;;;;;57.77;2.60;;;;;;;;;;5093364;28;20442;-67
2022/08/06 11:28:06;;;;;;;57.80;2.50;;;;;;;;;;5093247;28;20450;-67
2022/08/06 11:30:40;;;;;;;58.27;2.73;;;;;;;;;;5092680;28;20474;-67
2022/08/06 11:33:08;;;;;;;57.87;2.30;;;;;;;;;;5093264;28;20565;-67
2022/08/06 11:35:45;;;;;;;58.30;2.50;;;;;;;;;;5093095;28;20453;-67
2022/08/06 11:38:13;;;;;;;57.97;2.50;;;;;;;;;;5093056;28;20454;-67
2022/08/06 11:40:59;;;;;;;57.77;2.57;;;;;;;;;;5091987;28;20492;-68
2022/08/06 11:43:46;;;;;;;57.63;2.50;;;;;;;;;;5092862;28;21008;-67
2022/08/06 11:46:23;;;;;;;57.90;2.57;;;;;;;;;;5092886;28;20842;-68
2022/08/06 11:49:23;;;;;;;57.47;2.70;;;;;;;;;;5092376;28;20455;-68
2022/08/06 11:51:53;;;;;;;57.13;2.20;;;;;;;;;;5030103;28;20500;-68
2022/08/06 11:54:22;;;;;;;57.87;2.63;;;;;;;;;;5030155;28;20461;-68
2022/08/06 11:57:07;;;;;;;57.30;2.37;;;;;;;;;;5030159;28;20474;-68
2022/08/06 11:59:36;;;;;;;57.30;2.30;;;;;;;;;;5029733;28;20491;-68
2022/08/06 12:02:04;;;;;;;57.60;2.30;;;;;;;;;;5029976;28;20548;-68
2022/08/06 12:04:44;;;;;;;57.60;2.60;;;;;;;;;;5030029;28;20452;-68
2022/08/06 12:07:21;;;;;;;57.60;2.63;;;;;;;;;;5030044;28;20453;-68
2022/08/06 12:09:59;;;;;;;57.17;2.40;;;;;;;;;;5029721;28;20960;-67
2022/08/06 12:12:33;;;;;;;57.47;2.50;;;;;;;;;;5029820;28;20477;-68
2022/08/06 12:15:01;;;;;;;57.00;2.23;;;;;;;;;;5029934;28;20995;-68
2022/08/06 12:17:29;;;;;;;57.07;2.10;;;;;;;;;;5029845;28;20446;-68
2022/08/06 12:19:57;;;;;;;57.40;2.10;;;;;;;;;;5029355;28;20445;-68
2022/08/06 12:22:25;;;;;;;57.37;2.17;;;;;;;;;;5051205;28;20459;-68
2022/08/06 12:24:54;;;;;;;61.50;2.37;;;;;;;;;;5092333;28;20438;-68
2022/08/06 12:27:22;;;;;;;57.27;2.20;;;;;;;;;;5092317;28;20453;-68
2022/08/06 12:29:49;;;;;;;57.40;2.50;;;;;;;;;;5091735;28;20446;-67
2022/08/06 12:32:23;;;;;;;56.87;2.40;;;;;;;;;;5092012;28;20482;-68
2022/08/06 12:34:51;;;;;;;58.30;2.60;;;;;;;;;;5092063;28;20949;-68
2022/08/06 12:37:18;;;;;;;57.40;2.47;;;;;;;;;;5091901;28;20521;-68
2022/08/06 12:42:33;;;;;;;56.90;2.00;;;;;;;;;;5092177;28;20588;-66
2022/08/06 12:45:00;;;;;;;56.80;2.17;;;;;;;;;;5092083;28;20447;-66
2022/08/06 12:47:27;;;;;;;56.80;2.00;;;;;;;;;;5091983;28;20841;-66
2022/08/06 12:49:54;;;;;;;56.97;2.33;;;;;;;;;;5091456;28;20474;-68
2022/08/06 12:52:22;;;;;;;56.77;2.40;;;;;;;;;;5093515;28;20489;-66
2022/08/06 12:54:51;;;;;;;56.87;2.20;;;;;;;;;;5096302;28;20529;-68
2022/08/06 12:57:21;;;;;;;57.00;2.20;;;;;;;;;;5096207;28;20450;-68
2022/08/06 12:59:49;;;;;;;57.70;2.70;;;;;;;;;;5095704;28;20453;-68
2022/08/06 13:02:16;;;;;;;58.90;2.10;;;;;;;;;;5095715;28;20973;-68
2022/08/06 13:04:44;;;;;;;56.57;1.77;;;;;;;;;;5096148;28;20447;-68
2022/08/06 13:07:11;;;;;;;56.90;2.20;;;;;;;;;;5096297;28;20809;-68
2022/08/06 13:09:38;;;;;;;56.87;1.97;;;;;;;;;;5095841;28;20448;-67
2022/08/06 13:12:18;;;;;;;57.07;2.03;;;;;;;;;;5095646;28;20466;-68
2022/08/06 13:14:52;;;;;;;56.70;2.10;;;;;;;;;;5095716;28;20446;-68
2022/08/06 13:17:21;;;;;;;57.07;2.40;;;;;;;;;;5095881;28;20446;-68
2022/08/06 13:19:54;;;;;;;56.90;2.20;;;;;;;;;;5095391;28;20499;-68
2022/08/06 13:22:22;;;;;;;56.87;1.90;;;;;;;;;;5095644;28;20906;-68
2022/08/06 13:24:49;;;;;;;56.77;2.10;;;;;;;;;;5095572;28;20849;-68
2022/08/06 13:27:18;;;;;;;56.70;1.83;;;;;;;;;;5095401;28;20438;-68
2022/08/06 13:30:00;;;;;;;57.50;3.03;;;;;;;;;;5094936;28;20935;-68
2022/08/06 13:32:28;;;;;;;56.90;2.20;;;;;;;;;;5095569;28;20478;-66
2022/08/06 13:34:56;;;;;;;56.63;1.87;;;;;;;;;;5095641;28;20442;-66
2022/08/06 13:37:43;;;;;;;57.10;2.20;;;;;;;;;;5095467;28;20446;-66
2022/08/06 13:40:11;;;;;;;56.57;1.90;;;;;;;;;;5095103;28;20477;-66
2022/08/06 13:42:50;;;;;;;56.97;2.67;;;;;;;;;;5095376;28;20478;-66
2022/08/06 13:45:21;;;;;;;56.70;2.03;;;;;;;;;;5095287;28;20930;-66
2022/08/06 13:47:49;;;;;;;56.73;2.17;;;;;;;;;;5095255;28;20810;-66
2022/08/06 13:50:17;;;;;;;57.77;2.20;;;;;;;;;;5094745;28;20549;-66
2022/08/06 13:52:44;;;;;;;57.87;2.00;;;;;;;;;;5094936;28;20490;-66
2022/08/06 13:55:12;;;;;;;61.30;2.20;;;;;;;;;;5095326;28;20446;-66
2022/08/06 13:57:39;;;;;;;57.00;2.00;;;;;;;;;;5095086;28;20909;-68
2022/08/06 14:00:08;;;;;;;56.87;2.10;;;;;;;;;;5094549;28;20453;-68
2022/08/06 14:02:35;;;;;;;56.40;1.70;;;;;;;;;;5094693;28;20455;-66
2022/08/06 14:05:03;;;;;;;56.97;2.10;;;;;;;;;;5094350;28;20452;-66
2022/08/06 14:07:30;;;;;;;56.67;2.20;;;;;;;;;;5094981;28;20537;-66
2022/08/06 14:09:57;;;;;;;56.90;1.90;;;;;;;;;;5094676;28;20442;-66
2022/08/06 14:12:24;;;;;;;56.43;1.70;;;;;;;;;;5094602;28;20520;-66
2022/08/06 14:14:52;;;;;;;56.83;2.00;;;;;;;;;;5094641;28;20481;-68
2022/08/06 14:17:20;;;;;;;57.27;2.20;;;;;;;;;;5094422;28;20450;-68
2022/08/06 14:19:47;;;;;;;56.67;1.90;;;;;;;;;;5094337;28;20449;-68
2022/08/06 14:22:15;;;;;;;56.77;1.97;;;;;;;;;;5094372;28;20470;-68
2022/08/06 14:24:42;;;;;;;56.73;2.10;;;;;;;;;;5094591;28;20492;-68
2022/08/06 14:27:09;;;;;;;56.60;1.90;;;;;;;;;;5094595;28;20452;-68
2022/08/06 14:29:36;;;;;;;56.90;1.93;;;;;;;;;;5093914;28;20829;-68
2022/08/06 14:32:04;;;;;;;63.00;2.40;;;;;;;;;;5094410;28;20466;-67
2022/08/06 14:34:32;;;;;;;56.87;2.20;;;;;;;;;;5094309;28;20487;-68
2022/08/06 14:36:59;;;;;;;57.10;2.20;;;;;;;;;;5094390;28;20442;-67
2022/08/06 14:39:27;;;;;;;56.90;2.40;;;;;;;;;;5093968;28;20449;-67
2022/08/06 14:44:57;;;;;;;56.53;2.00;;;;;;;;;;5094061;28;20518;-67
2022/08/06 14:47:24;;;;;;;57.40;2.20;;;;;;;;;;5094231;28;21010;-67
2022/08/06 14:49:52;;;;;;;56.97;2.07;;;;;;;;;;5093586;28;20454;-67
2022/08/06 14:52:20;;;;;;;57.47;2.10;;;;;;;;;;5093797;28;20466;-67
2022/08/06 14:54:47;;;;;;;57.40;2.30;;;;;;;;;;5093687;28;20478;-67